createdAt,value
2022-08-04T00:02:54.447Z,100298.05
2022-08-04T00:05:57.100Z,100299.08
2022-08-04T00:08:31.191Z,100296.02
2022-08-04T00:11:01.613Z,100291.58
2022-08-04T00:13:38.390Z,100289.48
2022-08-04T00:16:32.707Z,100289.38
2022-08-04T00:19:36.529Z,100287.36
2022-08-04T00:22:10.439Z,100287.55
2022-08-04T00:24:40.289Z,100293.27
2022-08-04T00:27:09.756Z,100293.10
2022-08-04T00:29:39.833Z,100295.20
2022-08-04T00:32:09.369Z,100296.20
2022-08-04T00:34:38.915Z,100294.52
2022-08-04T00:37:07.759Z,100290.65
2022-08-04T00:39:36.894Z,100294.81
2022-08-04T00:42:34.471Z,100293.05
2022-08-04T00:46:16.448Z,100297.16
2022-08-04T00:49:43.393Z,100294.29
2022-08-04T00:52:56.818Z,100302.64
2022-08-04T00:56:00.436Z,100305.27
2022-08-04T00:59:19.026Z,100305.61
2022-08-04T01:02:00.379Z,100307.11
2022-08-04T01:05:06.737Z,100306.85
2022-08-04T01:08:13.232Z,100307.86
2022-08-04T01:10:51.591Z,100307.31
2022-08-04T01:14:11.654Z,100307.81
2022-08-04T01:16:53.573Z,100308.88
2022-08-04T01:19:54.352Z,100304.11
2022-08-04T01:22:34.555Z,100308.73
2022-08-04T01:25:42.159Z,100309.22
2022-08-04T01:28:38.924Z,100311.77
2022-08-04T01:31:50.260Z,100312.71
2022-08-04T01:34:22.224Z,100307.27
2022-08-04T01:37:12.892Z,100309.79
2022-08-04T01:40:02.296Z,100309.29
2022-08-04T01:42:34.287Z,100311.05
2022-08-04T01:45:11.605Z,100309.36
2022-08-04T01:47:58.646Z,100310.32
2022-08-04T01:50:28.468Z,100310.32
2022-08-04T01:52:57.397Z,100310.28
2022-08-04T01:55:54.845Z,100305.05
2022-08-04T01:58:20.813Z,100301.16
2022-08-04T02:01:11.503Z,100299.91
2022-08-04T02:04:19.592Z,100303.78
2022-08-04T02:07:01.195Z,100300.73
2022-08-04T02:10:07.601Z,100300.79
2022-08-04T02:12:44.962Z,100298.90
2022-08-04T02:15:36.750Z,100296.48
2022-08-04T02:18:28.410Z,100294.31
2022-08-04T02:21:02.739Z,100297.44
2022-08-04T02:23:37.571Z,100295.60
2022-08-04T02:26:22.350Z,100290.02
2022-08-04T02:28:57.375Z,100287.52
2022-08-04T02:31:33.639Z,100285.78
2022-08-04T02:34:25.952Z,100283.29
2022-08-04T02:36:56.009Z,100282.55
2022-08-04T02:39:31.596Z,100282.55
2022-08-04T02:42:17.579Z,100279.90
2022-08-04T02:44:58.301Z,100279.56
2022-08-04T02:48:08.046Z,100276.57
2022-08-04T02:50:28.625Z,100277.23
2022-08-04T02:53:00.773Z,100275.96
2022-08-04T02:55:30.594Z,100274.63
2022-08-04T02:58:02.851Z,100271.81
2022-08-04T03:00:32.377Z,100271.27
2022-08-04T03:03:36.601Z,100273.29
2022-08-04T03:06:11.575Z,100272.79
2022-08-04T03:08:52.087Z,100273.50
2022-08-04T03:11:48.826Z,100271.77
2022-08-04T03:14:55.332Z,100275.90
2022-08-04T03:17:52.828Z,100280.56
2022-08-04T03:20:44.697Z,100281.83
2022-08-04T03:24:07.451Z,100283.79
2022-08-04T03:26:57.762Z,100281.91
2022-08-04T03:30:13.535Z,100281.65
2022-08-04T03:33:24.690Z,100282.94
2022-08-04T03:36:31.941Z,100281.21
2022-08-04T03:39:31.307Z,100286.95
2022-08-04T03:42:15.640Z,100289.08
2022-08-04T03:45:20.549Z,100292.09
2022-08-04T03:48:26.939Z,100291.48
2022-08-04T03:52:10.988Z,100294.16
2022-08-04T03:55:07.756Z,100297.27
2022-08-04T03:57:51.619Z,100298.07
2022-08-04T04:00:30.098Z,100295.56
2022-08-04T04:03:31.525Z,100292.65
2022-08-04T04:06:17.983Z,100292.63
2022-08-04T04:09:18.820Z,100294.40
2022-08-04T04:12:20.002Z,100294.09
2022-08-04T04:15:14.350Z,100292.80
2022-08-04T04:18:03.531Z,100290.83
2022-08-04T04:21:16.301Z,100288.42
2022-08-04T04:24:01.994Z,100290.23
2022-08-04T04:27:04.184Z,100289.81
2022-08-04T04:30:19.928Z,100291.33
2022-08-04T04:33:23.062Z,100287.52
2022-08-04T04:36:17.939Z,100293.37
2022-08-04T04:38:55.478Z,100296.91
2022-08-04T04:41:23.939Z,100292.71
2022-08-04T04:44:30.917Z,100294.86
2022-08-04T04:48:01.677Z,100295.23
2022-08-04T04:50:36.413Z,100296.04
2022-08-04T04:53:25.977Z,100299.14
2022-08-04T04:56:35.349Z,100301.77
2022-08-04T04:59:17.165Z,100304.09
2022-08-04T05:02:30.457Z,100307.67
2022-08-04T05:05:42.486Z,100305.13
2022-08-04T05:08:43.670Z,100308.41
2022-08-04T05:11:38.611Z,100305.20
2022-08-04T05:14:38.962Z,100304.03
2022-08-04T05:17:28.291Z,100300.73
2022-08-04T05:20:07.045Z,100301.27
2022-08-04T05:23:11.386Z,100306.10
2022-08-04T05:25:59.672Z,100305.02
2022-08-04T05:28:41.274Z,100303.89
2022-08-04T05:31:29.276Z,100303.29
2022-08-04T05:34:09.664Z,100302.27
2022-08-04T05:36:51.017Z,100305.80
2022-08-04T05:39:31.064Z,100305.77
2022-08-04T05:42:05.069Z,100306.38
2022-08-04T05:44:37.128Z,100304.17
2022-08-04T05:47:07.308Z,100302.13
2022-08-04T05:49:38.705Z,100303.00
2022-08-04T05:52:10.175Z,100303.05
2022-08-04T05:54:40.414Z,100303.25
2022-08-04T05:57:10.770Z,100304.25
2022-08-04T05:59:46.634Z,100305.56
2022-08-04T06:02:18.529Z,100305.70
2022-08-04T06:04:51.374Z,100300.79
2022-08-04T06:07:20.389Z,100302.30
2022-08-04T06:09:49.511Z,100303.05
2022-08-04T06:12:36.259Z,100308.64
2022-08-04T06:15:07.525Z,100307.36
2022-08-04T06:19:58.440Z,100310.36
2022-08-04T06:20:54.317Z,100317.10
2022-08-04T06:23:27.081Z,100318.23
2022-08-04T06:26:00.849Z,100319.99
2022-08-04T06:28:31.736Z,100322.88
2022-08-04T06:32:31.797Z,100321.92
2022-08-04T06:33:56.514Z,100320.61
2022-08-04T06:36:25.451Z,100323.52
2022-08-04T06:38:58.730Z,100322.23
2022-08-04T06:41:30.394Z,100323.45
2022-08-04T06:44:02.548Z,100327.75
2022-08-04T06:46:34.459Z,100322.13
2022-08-04T06:49:04.985Z,100317.45
2022-08-04T06:51:45.258Z,100320.02
2022-08-04T06:54:17.744Z,100317.66
2022-08-04T06:56:50.530Z,100323.25
2022-08-04T06:59:22.471Z,100322.53
2022-08-04T07:01:53.209Z,100317.59
2022-08-04T07:04:25.241Z,100320.11
2022-08-04T07:06:54.843Z,100316.67
2022-08-04T07:09:27.927Z,100319.92
2022-08-04T07:11:56.728Z,100319.80
2022-08-04T07:14:27.267Z,100317.92
2022-08-04T07:16:58.301Z,100317.80
2022-08-04T07:19:26.937Z,100316.21
2022-08-04T07:22:24.811Z,100324.17
2022-08-04T07:24:45.199Z,100320.31
2022-08-04T07:27:13.943Z,100320.45
2022-08-04T07:29:42.910Z,100320.64
2022-08-04T07:32:13.856Z,100320.04
2022-08-04T07:34:43.850Z,100319.41
2022-08-04T07:37:20.254Z,100319.98
2022-08-04T07:39:49.217Z,100321.79
2022-08-04T07:42:21.823Z,100319.57
2022-08-04T07:44:50.609Z,100321.65
2022-08-04T07:47:25.173Z,100321.19
2022-08-04T07:49:57.741Z,100318.17
2022-08-04T07:52:27.953Z,100319.48
2022-08-04T07:54:56.876Z,100320.44
2022-08-04T07:57:41.110Z,100318.97
2022-08-04T08:00:14.954Z,100313.84
2022-08-04T08:02:48.377Z,100312.74
2022-08-04T08:05:19.491Z,100311.55
2022-08-04T08:07:54.711Z,100310.36
2022-08-04T08:10:25.197Z,100302.31
2022-08-04T08:12:54.644Z,100304.39
2022-08-04T08:15:23.501Z,100305.83
2022-08-04T08:17:58.210Z,100305.99
2022-08-04T08:20:31.964Z,100304.60
2022-08-04T08:23:02.982Z,100300.88
2022-08-04T08:25:33.812Z,100297.95
2022-08-04T08:28:05.373Z,100301.95
2022-08-04T08:30:35.460Z,100305.27
2022-08-04T08:33:09.976Z,100302.34
2022-08-04T08:36:10.038Z,100304.05
2022-08-04T08:38:49.846Z,100306.35
2022-08-04T08:42:11.039Z,100304.60
2022-08-04T08:45:24.490Z,100307.60
2022-08-04T08:48:33.332Z,100307.75
2022-08-04T08:52:08.316Z,100308.42
2022-08-04T08:54:54.887Z,100309.85
2022-08-04T08:58:00.334Z,100306.70
2022-08-04T09:00:51.048Z,100305.58
2022-08-04T09:03:56.464Z,100303.24
2022-08-04T09:06:56.963Z,100306.43
2022-08-04T09:10:10.081Z,100308.69
2022-08-04T09:13:03.038Z,100304.16
2022-08-04T09:15:45.601Z,100306.75
2022-08-04T09:18:46.110Z,100309.29
2022-08-04T09:21:40.427Z,100305.61
2022-08-04T09:24:36.758Z,100306.56
2022-08-04T09:27:24.698Z,100302.19
2022-08-04T09:30:04.635Z,100301.00
2022-08-04T09:32:38.976Z,100304.58
2022-08-04T09:35:25.662Z,100295.10
2022-08-04T09:38:20.104Z,100290.98
2022-08-04T09:41:24.828Z,100287.75
2022-08-04T09:44:50.316Z,100283.79
2022-08-04T09:47:39.361Z,100288.27
2022-08-04T09:50:16.978Z,100292.11
2022-08-04T09:53:31.411Z,100294.02
2022-08-04T09:56:03.587Z,100290.73
2022-08-04T09:59:01.729Z,100293.87
2022-08-04T10:01:32.253Z,100292.59
2022-08-04T10:04:12.775Z,100290.96
2022-08-04T10:07:25.346Z,100288.29
2022-08-04T10:10:15.820Z,100285.48
2022-08-04T10:12:49.726Z,100286.23
2022-08-04T10:15:33.180Z,100278.60
2022-08-04T10:18:10.549Z,100280.95
2022-08-04T10:21:15.683Z,100283.39
2022-08-04T10:24:32.966Z,100280.91
2022-08-04T10:27:30.641Z,100280.66
2022-08-04T10:30:13.971Z,100279.10
2022-08-04T10:33:12.080Z,100275.92
2022-08-04T10:36:05.308Z,100272.71
2022-08-04T10:39:43.163Z,100272.25
2022-08-04T10:42:17.211Z,100271.66
2022-08-04T10:45:06.263Z,100265.25
2022-08-04T10:47:44.004Z,100261.46
2022-08-04T10:50:25.574Z,100261.18
2022-08-04T10:53:10.358Z,100254.78
2022-08-04T10:56:06.986Z,100255.02
2022-08-04T10:58:46.911Z,100247.56
2022-08-04T11:01:50.757Z,100251.36
2022-08-04T11:04:47.086Z,100248.55
2022-08-04T11:07:17.417Z,100246.34
2022-08-04T11:09:46.868Z,100245.70
2022-08-04T11:12:23.407Z,100245.66
2022-08-04T11:14:58.897Z,100244.98
2022-08-04T11:17:53.837Z,100245.55
2022-08-04T11:20:43.702Z,100247.10
2022-08-04T11:23:24.042Z,100246.30
2022-08-04T11:26:15.800Z,100248.54
2022-08-04T11:29:05.834Z,100242.70
2022-08-04T11:31:47.244Z,100242.39
2022-08-04T11:34:23.034Z,100239.73
2022-08-04T11:37:14.019Z,100242.95
2022-08-04T11:39:59.412Z,100242.50
2022-08-04T11:42:36.500Z,100234.80
2022-08-04T11:45:15.828Z,100235.08
2022-08-04T11:48:06.731Z,100226.11
2022-08-04T11:50:46.081Z,100232.26
2022-08-04T11:53:21.913Z,100232.44
2022-08-04T11:56:07.891Z,100228.59
2022-08-04T11:58:39.133Z,100228.66
2022-08-04T12:01:35.094Z,100230.90
2022-08-04T12:04:42.179Z,100227.87
2022-08-04T12:07:59.275Z,100227.93
2022-08-04T12:10:51.261Z,100226.69
2022-08-04T12:13:40.963Z,100227.29
2022-08-04T12:16:15.148Z,100226.82
2022-08-04T12:18:59.171Z,100226.08
2022-08-04T12:21:50.406Z,100219.51
2022-08-04T12:24:29.893Z,100212.34
2022-08-04T12:27:07.237Z,100213.71
2022-08-04T12:29:40.561Z,100217.21
2022-08-04T12:32:19.243Z,100209.71
2022-08-04T12:35:23.527Z,100207.25
2022-08-04T12:38:09.186Z,100205.95
2022-08-04T12:40:52.322Z,100211.18
2022-08-04T12:43:30.253Z,100213.33
2022-08-04T12:46:06.083Z,100208.98
2022-08-04T12:48:39.233Z,100211.98
2022-08-04T12:52:05.894Z,100209.15
2022-08-04T12:53:59.361Z,100207.44
2022-08-04T12:56:29.878Z,100201.55
2022-08-04T12:59:12.618Z,100197.81
2022-08-04T13:02:09.582Z,100188.64
2022-08-04T13:04:51.244Z,100187.34
2022-08-04T13:07:24.944Z,100183.60
2022-08-04T13:09:53.814Z,100187.71
2022-08-04T13:12:32.518Z,100185.16
2022-08-04T13:15:18.062Z,100183.44
2022-08-04T13:18:04.896Z,100180.89
2022-08-04T13:20:37.733Z,100179.29
2022-08-04T13:23:14.579Z,100175.29
2022-08-04T13:26:43.023Z,100174.90
2022-08-04T13:28:49.627Z,100170.85
2022-08-04T13:31:24.665Z,100167.03
2022-08-04T13:34:02.619Z,100164.29
2022-08-04T13:36:32.723Z,100161.97
2022-08-04T13:39:16.114Z,100163.14
2022-08-04T13:41:59.098Z,100161.60
2022-08-04T13:44:34.525Z,100160.17
2022-08-04T13:47:16.083Z,100164.25
2022-08-04T13:50:22.691Z,100163.59
2022-08-04T13:52:54.837Z,100159.52
2022-08-04T13:55:25.987Z,100156.55
2022-08-04T13:58:02.046Z,100155.30
2022-08-04T14:00:58.980Z,100149.42
2022-08-04T14:03:54.110Z,100147.55
2022-08-04T14:06:36.184Z,100146.17
2022-08-04T14:09:23.516Z,100149.13
2022-08-04T14:12:38.628Z,100146.42
2022-08-04T14:15:02.905Z,100141.77
2022-08-04T14:17:31.815Z,100132.55
2022-08-04T14:20:02.614Z,100130.06
2022-08-04T14:22:35.136Z,100129.35
2022-08-04T14:25:15.699Z,100130.21
2022-08-04T14:27:57.439Z,100126.46
2022-08-04T14:30:37.810Z,100117.80
2022-08-04T14:34:03.961Z,100121.01
2022-08-04T14:36:03.961Z,100117.66
2022-08-04T14:38:43.341Z,100119.13
2022-08-04T14:41:13.835Z,100120.65
2022-08-04T14:43:52.520Z,100116.77
2022-08-04T14:46:23.703Z,100115.66
2022-08-04T14:49:10.937Z,100109.48
2022-08-04T14:51:46.906Z,100104.88
2022-08-04T14:54:18.774Z,100101.05
2022-08-04T14:56:59.031Z,100110.20
2022-08-04T14:59:40.202Z,100119.39
2022-08-04T15:02:15.158Z,100118.58
2022-08-04T15:04:46.135Z,100114.73
2022-08-04T15:07:16.864Z,100110.77
2022-08-04T15:09:45.764Z,100106.96
2022-08-04T15:12:44.557Z,100102.42
2022-08-04T15:15:35.911Z,100097.34
2022-08-04T15:18:10.868Z,100094.72
2022-08-04T15:20:42.367Z,100092.63
2022-08-04T15:23:11.163Z,100091.71
2022-08-04T15:25:48.245Z,100089.95
2022-08-04T15:28:20.339Z,100092.59
2022-08-04T15:30:55.095Z,100097.82
2022-08-04T15:33:33.556Z,100098.79
2022-08-04T15:36:14.723Z,100103.55
2022-08-04T15:39:12.573Z,100098.06
2022-08-04T15:42:23.177Z,100094.98
2022-08-04T15:44:51.785Z,100088.84
2022-08-04T15:47:20.954Z,100088.81
2022-08-04T15:50:12.478Z,100084.13
2022-08-04T15:53:01.336Z,100074.98
2022-08-04T15:55:43.962Z,100069.05
2022-08-04T15:58:15.177Z,100066.61
2022-08-04T16:00:49.677Z,100068.03
2022-08-04T16:03:55.413Z,100063.42
2022-08-04T16:06:22.603Z,100061.80
2022-08-04T16:08:52.630Z,100064.77
2022-08-04T16:11:31.351Z,100066.20
2022-08-04T16:14:03.751Z,100074.67
2022-08-04T16:16:50.203Z,100071.13
2022-08-04T16:19:55.102Z,100069.94
2022-08-04T16:22:40.705Z,100068.86
2022-08-04T16:25:10.138Z,100069.90
2022-08-04T16:27:42.898Z,100069.29
2022-08-04T16:30:15.103Z,100076.38
2022-08-04T16:32:48.867Z,100078.44
2022-08-04T16:35:28.943Z,100078.77
2022-08-04T16:38:15.894Z,100071.34
2022-08-04T16:40:44.908Z,100072.27
2022-08-04T16:43:16.203Z,100064.14
2022-08-04T16:46:04.807Z,100062.64
2022-08-04T16:48:36.528Z,100058.91
2022-08-04T16:51:13.256Z,100050.23
2022-08-04T16:53:53.803Z,100049.71
2022-08-04T16:56:35.532Z,100043.55
2022-08-04T16:59:12.895Z,100042.63
2022-08-04T17:01:51.116Z,100041.77
2022-08-04T17:04:31.505Z,100042.64
2022-08-04T17:07:03.456Z,100042.60
2022-08-04T17:09:33.401Z,100047.70
2022-08-04T17:12:02.877Z,100050.07
2022-08-04T17:14:31.689Z,100051.62
2022-08-04T17:17:02.559Z,100053.26
2022-08-04T17:19:31.067Z,100051.27
2022-08-04T17:22:10.096Z,100050.10
2022-08-04T17:24:41.095Z,100048.77
2022-08-04T17:28:09.406Z,100053.46
2022-08-04T17:29:59.865Z,100054.89
2022-08-04T17:32:28.528Z,100053.13
2022-08-04T17:35:02.145Z,100057.15
2022-08-04T17:37:41.052Z,100054.55
2022-08-04T17:44:00.947Z,100044.96
2022-08-04T17:46:28.821Z,100038.45
2022-08-04T17:49:16.535Z,100043.05
2022-08-04T17:52:05.355Z,100037.67
2022-08-04T17:54:40.676Z,100038.91
2022-08-04T17:57:23.355Z,100037.50
2022-08-04T17:59:56.376Z,100037.07
2022-08-04T18:02:34.398Z,100036.55
2022-08-04T18:05:11.404Z,100033.66
2022-08-04T18:08:39.250Z,100032.50
2022-08-04T18:10:52.020Z,100034.08
2022-08-04T18:13:27.443Z,100031.35
2022-08-04T18:16:14.372Z,100030.75
2022-08-04T18:19:12.432Z,100033.00
2022-08-04T18:21:46.142Z,100029.37
2022-08-04T18:24:36.113Z,100030.33
2022-08-04T18:27:24.080Z,100030.02
2022-08-04T18:30:32.432Z,100032.30
2022-08-04T18:33:24.731Z,100037.77
2022-08-04T18:36:32.795Z,100036.45
2022-08-04T18:38:25.223Z,100037.55
2022-08-04T18:40:54.732Z,100033.96
2022-08-04T18:43:27.962Z,100039.60
2022-08-04T18:45:59.727Z,100033.95
2022-08-04T18:48:35.919Z,100037.23
2022-08-04T18:51:22.712Z,100043.36
2022-08-04T18:53:59.050Z,100044.85
2022-08-04T18:56:31.899Z,100048.25
2022-08-04T18:59:03.713Z,100052.67
2022-08-04T19:02:12.738Z,100055.77
2022-08-04T19:04:36.524Z,100052.98
2022-08-04T19:07:23.482Z,100056.84
2022-08-04T19:09:57.837Z,100054.19
2022-08-04T19:12:28.782Z,100062.39
2022-08-04T19:15:10.589Z,100065.45
2022-08-04T19:17:55.142Z,100065.42
2022-08-04T19:20:28.357Z,100062.96
2022-08-04T19:24:29.899Z,100062.20
2022-08-04T19:26:01.136Z,100061.79
2022-08-04T19:28:36.544Z,100063.76
2022-08-04T19:31:08.977Z,100060.42
2022-08-04T19:33:58.066Z,100065.03
2022-08-04T19:36:31.073Z,100072.75
2022-08-04T19:39:09.172Z,100069.95
2022-08-04T19:42:05.769Z,100067.50
2022-08-04T19:44:31.492Z,100072.16
2022-08-04T19:47:00.741Z,100069.56
2022-08-04T19:50:05.282Z,100067.11
2022-08-04T19:52:34.098Z,100076.23
2022-08-04T19:55:10.115Z,100075.34
2022-08-04T19:57:46.570Z,100075.54
2022-08-04T20:00:33.319Z,100073.92
2022-08-04T20:03:03.711Z,100078.37
2022-08-04T20:05:53.235Z,100076.73
2022-08-04T20:08:29.708Z,100074.72
2022-08-04T20:11:00.235Z,100076.88
2022-08-04T20:13:37.300Z,100081.23
2022-08-04T20:16:20.248Z,100084.54
2022-08-04T20:19:00.950Z,100085.34
2022-08-04T20:21:53.580Z,100081.81
2022-08-04T20:24:37.844Z,100081.67
2022-08-04T20:27:15.344Z,100082.67
2022-08-04T20:29:49.220Z,100085.45
2022-08-04T20:32:28.007Z,100085.53
2022-08-04T20:34:58.130Z,100082.90
2022-08-04T20:37:56.896Z,100084.23
2022-08-04T20:40:16.891Z,100086.08
2022-08-04T20:42:48.204Z,100088.14
2022-08-04T20:45:18.226Z,100084.30
2022-08-04T20:47:53.294Z,100084.94
2022-08-04T20:50:29.856Z,100085.77
2022-08-04T20:52:59.393Z,100084.03
2022-08-04T20:55:29.536Z,100088.05
2022-08-04T20:58:02.987Z,100086.41
2022-08-04T21:00:32.580Z,100084.20
2022-08-04T21:03:01.380Z,100083.66
2022-08-04T21:05:31.658Z,100084.15
2022-08-04T21:08:00.445Z,100084.92
2022-08-04T21:10:31.065Z,100086.15
2022-08-04T21:12:59.684Z,100086.66
2022-08-04T21:15:58.686Z,100090.54
2022-08-04T21:18:17.140Z,100088.31
2022-08-04T21:20:48.235Z,100086.07
2022-08-04T21:23:17.139Z,100087.29
2022-08-04T21:25:51.012Z,100086.81
2022-08-04T21:28:20.204Z,100091.11
2022-08-04T21:30:53.916Z,100091.96
2022-08-04T21:39:04.307Z,100095.76
2022-08-04T21:42:19.731Z,100091.02
2022-08-04T21:44:29.677Z,100089.34
2022-08-04T21:46:58.224Z,100090.55
2022-08-04T21:49:26.710Z,100091.66
2022-08-04T21:51:58.409Z,100095.29
2022-08-04T21:54:29.477Z,100093.40
2022-08-04T21:56:58.014Z,100090.64
2022-08-04T21:59:30.523Z,100092.06
2022-08-04T22:02:01.772Z,100093.30
2022-08-04T22:04:31.082Z,100091.46
2022-08-04T22:07:03.310Z,100092.42
2022-08-04T22:09:38.717Z,100093.26
2022-08-04T22:12:11.682Z,100091.15
2022-08-04T22:14:40.726Z,100093.91
2022-08-04T22:17:20.602Z,100093.05
2022-08-04T22:19:55.840Z,100093.75
2022-08-04T22:22:29.533Z,100093.42
2022-08-04T22:25:12.318Z,100093.54
2022-08-04T22:28:02.756Z,100096.14
2022-08-04T22:30:36.977Z,100093.13
2022-08-04T22:33:08.892Z,100093.30
2022-08-04T22:35:49.091Z,100094.36
2022-08-04T22:38:28.032Z,100092.77
2022-08-04T22:41:15.844Z,100093.36
2022-08-04T22:43:55.049Z,100088.84
2022-08-04T22:46:26.764Z,100090.55
2022-08-04T22:48:56.792Z,100086.97
2022-08-04T22:51:27.023Z,100082.95
2022-08-04T22:53:55.909Z,100084.11
2022-08-04T22:56:38.282Z,100083.27
2022-08-04T22:59:10.001Z,100079.00
2022-08-04T23:02:01.152Z,100076.40
2022-08-04T23:04:31.007Z,100078.54
2022-08-04T23:07:01.311Z,100076.84
2022-08-04T23:09:49.043Z,100074.54
2022-08-04T23:12:25.887Z,100069.23
2022-08-04T23:14:58.158Z,100071.00
2022-08-04T23:17:28.711Z,100068.55
2022-08-04T23:19:59.674Z,100069.66
2022-08-04T23:22:40.974Z,100071.55
2022-08-04T23:25:15.890Z,100068.24
2022-08-04T23:27:50.938Z,100063.67
2022-08-04T23:30:29.900Z,100062.73
2022-08-04T23:32:59.216Z,100063.90
2022-08-04T23:35:28.044Z,100060.66
2022-08-04T23:37:59.922Z,100060.00
2022-08-04T23:40:49.988Z,100062.66
2022-08-04T23:43:19.756Z,100058.83
2022-08-04T23:46:06.908Z,100058.98
2022-08-04T23:48:38.845Z,100059.30
2022-08-04T23:51:14.370Z,100055.75
2022-08-04T23:54:02.464Z,100059.88
2022-08-04T23:56:34.660Z,100057.59
2022-08-04T23:59:04.621Z,100055.36
